Time;durP1;ratioP1;P1;durP2;ratioP2;P2;SDS_P1;SDS_P2;PMS_P1;PMS_P2;Temp;Humidity;BMP_temperature;BMP_pressure;BME280_temperature;BME280_humidity;BME280_pressure;Samples;Min_cycle;Max_cycle;Signal;HPM_P1;HPM_P2
2021/07/07 00:00:24;;;;;;;;;3.33;2.00;;;;;19.36;47.39;100959.31;6149208;23;45210;-89
2021/07/07 00:02:50;;;;;;;;;2.00;2.00;;;;;19.34;48.16;100953.31;6148850;23;45227;-89
2021/07/07 00:05:18;;;;;;;;;4.00;3.00;;;;;19.29;47.78;100957.22;6149429;23;45275;-89
2021/07/07 00:07:44;;;;;;;;;3.00;2.67;;;;;19.26;48.35;100962.72;6148824;22;46299;-89
2021/07/07 00:10:14;;;;;;;;;3.67;2.00;;;;;19.19;48.48;100959.66;6148651;23;45369;-89
2021/07/07 00:12:40;;;;;;;;;3.00;3.00;;;;;19.18;48.08;100964.09;6148657;23;45236;-89
2021/07/07 00:15:11;;;;;;;;;4.00;2.00;;;;;19.13;48.46;100968.00;6149006;23;45286;-88
2021/07/07 00:17:38;;;;;;;;;3.00;3.00;;;;;19.08;48.44;100974.41;6252084;22;46051;-88
2021/07/07 00:20:06;;;;;;;;;4.33;3.00;;;;;19.03;48.86;100962.47;6148990;23;45224;-89
2021/07/07 00:22:32;;;;;;;;;4.00;4.00;;;;;19.00;48.89;100966.16;6148964;23;45315;-89
2021/07/07 00:24:57;;;;;;;;;3.00;3.00;;;;;18.97;49.06;100966.38;6251252;22;45275;-89
2021/07/07 00:27:23;;;;;;;;;5.00;3.00;;;;;18.91;49.16;100970.28;6148136;23;46140;-89
2021/07/07 00:29:49;;;;;;;;;3.00;3.00;;;;;18.90;49.06;100975.66;6148558;22;45376;-89
2021/07/07 00:32:16;;;;;;;;;5.00;3.33;;;;;18.89;49.46;100979.22;6149004;23;45354;-89
2021/07/07 00:34:41;;;;;;;;;4.67;2.00;;;;;18.87;49.55;100975.84;6148599;23;45185;-89
2021/07/07 00:37:07;;;;;;;;;4.67;2.33;;;;;18.83;49.71;100977.84;6148370;23;45401;-89
2021/07/07 00:39:32;;;;;;;;;3.00;3.00;;;;;18.82;49.53;100974.38;6148889;23;45404;-89
2021/07/07 00:41:57;;;;;;;;;3.00;3.00;;;;;18.82;49.37;100978.78;6148852;22;45215;-89
2021/07/07 00:44:23;;;;;;;;;2.33;2.33;;;;;18.79;49.61;100984.28;6148808;23;45390;-89
2021/07/07 00:46:48;;;;;;;;;4.00;3.00;;;;;18.78;49.81;100983.44;6148352;23;46071;-89
2021/07/07 00:49:14;;;;;;;;;4.00;3.00;;;;;18.75;49.83;100975.72;6148660;23;45248;-89
2021/07/07 00:51:40;;;;;;;;;2.67;2.67;;;;;18.73;49.54;100980.25;6148740;23;45262;-88
2021/07/07 00:54:07;;;;;;;;;2.00;2.00;;;;;18.72;49.66;100981.22;6149033;23;45241;-89
2021/07/07 00:56:35;;;;;;;;;5.33;3.00;;;;;18.66;50.19;100984.25;6250877;22;47554;-89
2021/07/07 00:59:02;;;;;;;;;2.67;1.67;;;;;18.55;49.78;100975.28;6147920;23;45356;-88
2021/07/07 01:01:29;;;;;;;;;3.33;3.00;;;;;18.49;50.27;100967.78;6148335;22;45290;-89
2021/07/07 01:03:54;;;;;;;;;4.00;4.00;;;;;18.46;50.24;100967.97;6149120;23;45271;-89
2021/07/07 01:06:19;;;;;;;;;2.67;2.00;;;;;18.42;50.75;100972.59;6147606;23;45533;-89
2021/07/07 01:08:45;;;;;;;;;2.33;2.33;;;;;18.39;50.60;100971.94;6148843;23;45190;-88
2021/07/07 01:11:10;;;;;;;;;3.00;2.00;;;;;18.36;50.52;100977.41;6148506;22;45277;-89
2021/07/07 01:13:38;;;;;;;;;3.00;3.00;;;;;18.36;50.75;100977.41;6148915;22;45261;-88
2021/07/07 01:16:04;;;;;;;;;1.33;1.33;;;;;18.40;50.78;100982.41;6148626;23;45239;-89
2021/07/07 01:18:30;;;;;;;;;2.00;2.00;;;;;18.38;51.09;100976.38;6147748;23;45398;-89
2021/07/07 01:20:55;;;;;;;;;4.00;2.67;;;;;18.42;50.39;100979.63;6149081;22;45502;-89
2021/07/07 01:23:20;;;;;;;;;3.00;1.00;;;;;18.43;50.46;100979.53;6148760;23;45361;-89
2021/07/07 01:25:46;;;;;;;;;5.00;2.67;;;;;18.45;50.83;100978.59;6147849;23;45248;-89
2021/07/07 01:28:11;;;;;;;;;3.00;2.00;;;;;18.42;50.83;100977.88;6148084;23;45201;-88
2021/07/07 01:30:37;;;;;;;;;3.00;3.00;;;;;18.39;50.55;100974.59;6148015;22;45234;-89
2021/07/07 01:33:02;;;;;;;;;3.00;2.33;;;;;18.30;51.01;100983.94;6148721;23;45489;-89
2021/07/07 01:35:28;;;;;;;;;5.33;3.33;;;;;18.26;50.72;100979.81;6148030;23;46076;-89
2021/07/07 01:37:54;;;;;;;;;5.00;3.00;;;;;18.21;51.14;100974.84;6147712;23;45278;-89
2021/07/07 01:40:23;;;;;;;;;4.00;3.00;;;;;18.18;51.53;100975.03;6148350;23;45386;-89
2021/07/07 01:42:48;;;;;;;;;3.33;2.33;;;;;18.14;51.86;100981.44;6251968;22;45534;-88
2021/07/07 01:45:15;;;;;;;;;2.00;2.00;;;;;18.12;51.37;100975.44;6147940;23;45381;-89
2021/07/07 01:47:41;;;;;;;;;3.00;3.00;;;;;18.07;51.59;100978.38;6148284;23;45618;-88
2021/07/07 01:50:10;;;;;;;;;4.67;4.00;;;;;18.04;51.81;100983.78;6147674;23;45316;-88
2021/07/07 01:52:36;;;;;;;;;4.33;3.00;;;;;18.05;51.89;100976.75;6148397;23;45579;-89
2021/07/07 01:55:02;;;;;;;;;4.00;3.00;;;;;18.04;51.53;100975.88;6147584;22;45542;-89
2021/07/07 01:57:43;;;;;;;;;3.67;2.00;;;;;18.04;51.83;100981.16;6147441;22;45318;-89
2021/07/07 02:00:13;;;;;;;;;2.67;2.00;;;;;18.03;51.96;100976.84;6250962;22;45600;-88
2021/07/07 02:02:38;;;;;;;;;2.33;2.33;;;;;17.99;51.88;100984.09;6148517;22;45220;-89
2021/07/07 02:05:06;;;;;;;;;4.00;2.00;;;;;17.94;52.11;100972.16;6147668;23;45279;-90
2021/07/07 02:07:31;;;;;;;;;5.00;3.00;;;;;17.95;52.12;100982.59;6147987;23;45220;-89
2021/07/07 02:09:57;;;;;;;;;4.33;2.00;;;;;17.95;52.35;100968.59;6147364;23;45219;-88
2021/07/07 02:12:22;;;;;;;;;5.00;2.67;;;;;17.95;51.90;100972.06;6147967;22;45241;-89
2021/07/07 02:14:47;;;;;;;;;4.00;4.00;;;;;17.93;52.13;100979.22;6148031;23;45274;-89
2021/07/07 02:17:13;;;;;;;;;2.00;2.00;;;;;17.89;52.06;100975.06;6147720;23;45421;-89
2021/07/07 02:19:38;;;;;;;;;4.33;2.67;;;;;17.90;52.19;100979.41;6148050;23;45244;-89
2021/07/07 02:22:04;;;;;;;;;3.33;3.00;;;;;17.88;52.13;100974.22;6147684;22;45169;-89
2021/07/07 02:24:29;;;;;;;;;4.33;3.00;;;;;17.85;52.88;100977.06;6251056;22;46902;-89
2021/07/07 02:26:54;;;;;;;;;3.00;2.67;;;;;17.86;52.62;100981.38;6147490;23;45196;-88
2021/07/07 02:29:20;;;;;;;;;3.00;3.00;;;;;17.84;52.29;100980.66;6147771;22;45227;-89
2021/07/07 02:31:45;;;;;;;;;2.00;2.00;;;;;17.76;52.74;100981.13;6147559;23;45311;-89
2021/07/07 02:34:10;;;;;;;;;4.00;3.00;;;;;17.73;52.63;100986.56;6147481;23;45244;-89
2021/07/07 02:36:36;;;;;;;;;5.00;3.00;;;;;17.62;52.86;100976.72;6147575;22;45214;-89
2021/07/07 02:39:02;;;;;;;;;3.00;2.00;;;;;17.63;52.99;100986.31;6147833;23;45329;-89
2021/07/07 02:41:27;;;;;;;;;5.67;3.00;;;;;17.58;53.10;100983.09;6147657;22;45496;-89
2021/07/07 02:43:53;;;;;;;;;5.67;2.00;;;;;17.55;52.97;100977.19;6147061;22;45483;-88
2021/07/07 02:46:18;;;;;;;;;3.00;3.00;;;;;17.51;52.99;100976.53;6147546;23;45362;-89
2021/07/07 02:48:44;;;;;;;;;6.00;4.00;;;;;17.49;53.43;100984.53;6251288;22;45808;-89
2021/07/07 02:51:09;;;;;;;;;3.00;3.00;;;;;17.47;53.48;100978.53;6147833;23;45362;-89
2021/07/07 02:53:34;;;;;;;;;3.33;2.67;;;;;17.45;53.35;100980.38;6147005;23;46120;-88
2021/07/07 02:56:00;;;;;;;;;4.00;3.00;;;;;17.45;53.58;100984.81;6147298;23;45725;-89
2021/07/07 02:58:25;;;;;;;;;3.33;3.00;;;;;17.39;53.62;100983.38;6147590;23;45325;-89
2021/07/07 03:00:51;;;;;;;;;5.00;4.00;;;;;17.39;53.47;100986.03;6251292;22;45353;-89
2021/07/07 03:03:19;;;;;;;;;2.33;2.33;;;;;17.36;53.80;100984.41;6147053;22;45570;-89
2021/07/07 03:05:50;;;;;;;;;6.00;4.00;;;;;17.35;54.28;100977.47;6147464;22;45271;-89
2021/07/07 03:08:17;;;;;;;;;4.00;4.00;;;;;17.35;53.92;100998.53;6147242;23;45326;-88
2021/07/07 03:10:44;;;;;;;;;5.00;4.00;;;;;17.34;54.64;101001.22;6147035;23;45252;-88
2021/07/07 03:13:11;;;;;;;;;4.67;3.00;;;;;17.30;54.45;100997.94;6146735;23;45591;-89
2021/07/07 03:15:38;;;;;;;;;5.00;4.00;;;;;17.28;54.12;100997.22;6147211;22;44669;-89
2021/07/07 03:18:05;;;;;;;;;3.00;2.33;;;;;17.25;54.49;100999.19;6147181;23;44724;-89
2021/07/07 03:20:31;;;;;;;;;3.00;2.67;;;;;17.26;54.54;101009.59;6147153;23;45520;-89
2021/07/07 03:22:57;;;;;;;;;2.00;2.00;;;;;17.28;54.77;101001.59;6147031;23;45327;-88
2021/07/07 03:25:23;;;;;;;;;3.00;3.00;;;;;17.30;54.62;100997.09;6147273;23;44888;-89
2021/07/07 03:27:49;;;;;;;;;4.00;4.00;;;;;17.32;54.33;101005.75;6147320;23;45444;-89
2021/07/07 03:30:16;;;;;;;;;4.00;3.00;;;;;17.31;54.67;101001.44;6147204;23;45377;-89
2021/07/07 03:32:43;;;;;;;;;4.00;3.00;;;;;17.34;54.61;101007.34;6146727;23;45440;-89
2021/07/07 03:35:09;;;;;;;;;2.00;2.00;;;;;17.34;54.51;101007.34;6147304;23;45384;-89
2021/07/07 03:37:34;;;;;;;;;3.00;2.67;;;;;17.33;54.79;101003.03;6147296;22;45271;-89
2021/07/07 03:40:00;;;;;;;;;6.00;3.67;;;;;17.33;54.55;101013.56;6147636;23;45541;-88
2021/07/07 03:42:25;;;;;;;;;2.67;2.67;;;;;17.34;54.81;101009.13;6146675;22;45477;-89
2021/07/07 03:44:51;;;;;;;;;3.00;3.00;;;;;17.32;54.94;101011.84;6147493;23;45231;-88
2021/07/07 03:47:16;;;;;;;;;3.67;3.67;;;;;17.36;54.75;101025.69;6147516;23;45195;-89
2021/07/07 03:49:41;;;;;;;;;3.67;2.67;;;;;17.33;55.01;101013.56;6147631;23;45262;-89
2021/07/07 03:52:07;;;;;;;;;3.50;3.00;;;;;17.29;55.44;101019.94;6146494;23;45196;-89
2021/07/07 03:54:33;;;;;;;;;2.33;2.33;;;;;17.30;54.59;101013.72;6147202;23;45248;-89
2021/07/07 03:56:58;;;;;;;;;7.00;5.00;;;;;17.26;55.00;101022.72;6250045;22;45252;-89
2021/07/07 03:59:24;;;;;;;;;3.00;3.00;;;;;17.25;55.33;101017.59;6250863;22;45302;-89
2021/07/07 04:01:50;;;;;;;;;4.00;4.00;;;;;17.30;55.31;101028.66;6146953;22;45531;-89
2021/07/07 04:04:16;;;;;;;;;4.67;2.33;;;;;17.25;55.25;101017.59;6250165;22;45376;-90
2021/07/07 04:06:42;;;;;;;;;4.00;3.00;;;;;17.28;55.15;101027.91;6250556;22;45330;-89
2021/07/07 04:09:09;;;;;;;;;5.00;4.00;;;;;17.23;55.78;101031.66;6147318;23;45281;-89
2021/07/07 04:11:34;;;;;;;;;3.33;3.33;;;;;17.24;55.74;101032.50;6146954;23;45321;-89
2021/07/07 04:14:00;;;;;;;;;3.33;3.00;;;;;17.26;55.63;101032.41;6146452;23;45333;-89
2021/07/07 04:16:25;;;;;;;;;3.00;3.00;;;;;17.25;55.52;101033.38;6147267;23;45333;-89
2021/07/07 04:18:51;;;;;;;;;4.00;3.67;;;;;17.30;55.51;101039.16;6147732;22;45334;-90
2021/07/07 04:21:17;;;;;;;;;6.00;3.00;;;;;17.33;55.39;101046.91;6147046;23;45207;-89
2021/07/07 04:23:42;;;;;;;;;3.00;3.00;;;;;17.33;55.58;101042.50;6250154;22;45247;-89
2021/07/07 04:26:08;;;;;;;;;3.33;3.33;;;;;17.35;55.19;101048.50;6147064;22;45590;-89
2021/07/07 04:28:33;;;;;;;;;6.00;4.33;;;;;17.37;55.12;101053.66;6147169;23;45214;-89
2021/07/07 04:30:58;;;;;;;;;5.33;3.00;;;;;17.36;55.39;101060.69;6249461;22;46952;-89
2021/07/07 04:33:24;;;;;;;;;3.00;3.00;;;;;17.38;55.31;101065.03;6147109;23;45211;-89
2021/07/07 04:35:49;;;;;;;;;6.67;4.00;;;;;17.41;55.31;101070.94;6251243;22;45399;-89
2021/07/07 04:38:14;;;;;;;;;5.67;5.00;;;;;17.39;55.52;101062.31;6252130;22;45318;-89
2021/07/07 04:40:40;;;;;;;;;5.00;4.00;;;;;17.40;55.17;101068.44;6148855;23;45247;-89
2021/07/07 04:43:05;;;;;;;;;5.33;3.00;;;;;17.40;55.71;101065.78;6148222;23;45256;-89
2021/07/07 04:45:31;;;;;;;;;3.67;2.00;;;;;17.39;55.37;101072.81;6148403;23;45687;-89
2021/07/07 04:47:56;;;;;;;;;3.33;3.33;;;;;17.41;56.07;101070.94;6149280;23;45333;-89
2021/07/07 04:50:22;;;;;;;;;2.67;2.33;;;;;17.38;56.00;101071.13;6148624;23;45341;-89
2021/07/07 04:52:48;;;;;;;;;3.00;3.00;;;;;17.41;55.73;101073.56;6148841;22;45423;-89
2021/07/07 04:55:14;;;;;;;;;7.00;4.00;;;;;17.41;55.88;101064.84;6148720;23;45261;-89
2021/07/07 04:57:40;;;;;;;;;6.00;5.00;;;;;17.44;55.68;101075.16;6148084;23;45329;-90
2021/07/07 05:00:09;;;;;;;;;6.00;4.00;;;;;17.49;55.86;101073.13;6148511;23;46215;-89
2021/07/07 05:02:34;;;;;;;;;6.00;5.00;;;;;17.47;55.81;101073.22;6148496;23;45162;-89
2021/07/07 05:05:00;;;;;;;;;2.00;2.00;;;;;17.53;55.95;101076.44;6148578;23;45557;-89
2021/07/07 05:07:25;;;;;;;;;2.33;2.33;;;;;17.55;55.91;101085.06;6148802;23;45207;-89
2021/07/07 05:09:51;;;;;;;;;2.00;2.00;;;;;17.57;56.19;101086.66;6148460;23;45308;-89
2021/07/07 05:12:16;;;;;;;;;6.00;4.00;;;;;17.58;55.85;101087.50;6148714;22;45459;-89
2021/07/07 05:14:41;;;;;;;;;4.33;4.33;;;;;17.58;56.11;101080.47;6148157;23;45322;-89
2021/07/07 05:17:07;;;;;;;;;4.33;2.00;;;;;17.62;55.82;101084.63;6148752;22;45247;-89
2021/07/07 05:19:32;;;;;;;;;2.33;2.33;;;;;17.64;56.16;101092.41;6148283;23;46298;-89
2021/07/07 05:21:58;;;;;;;;;2.67;2.67;;;;;17.67;56.18;101094.03;6148358;22;45208;-88
2021/07/07 05:24:23;;;;;;;;;3.00;3.00;;;;;17.70;56.05;101096.44;6148421;23;45526;-88
2021/07/07 05:26:49;;;;;;;;;5.33;4.00;;;;;17.72;56.25;101100.69;6148437;23;45366;-89
2021/07/07 05:29:16;;;;;;;;;4.00;4.00;;;;;17.73;56.14;101102.38;6147646;23;45375;-89
2021/07/07 05:31:42;;;;;;;;;4.00;3.33;;;;;17.79;56.22;101095.91;6146952;23;45379;-89
2021/07/07 05:34:09;;;;;;;;;3.33;3.33;;;;;17.83;56.11;101109.72;6251235;22;45306;-89
2021/07/07 05:36:34;;;;;;;;;3.00;3.00;;;;;17.84;56.56;101099.09;6148569;23;45299;-89
2021/07/07 05:38:59;;;;;;;;;4.33;4.00;;;;;17.87;56.31;101101.53;6147643;23;46241;-89
2021/07/07 05:41:25;;;;;;;;;4.00;4.00;;;;;17.88;56.08;101105.84;6148072;23;45201;-89
2021/07/07 05:43:53;;;;;;;;;5.33;3.00;;;;;17.95;56.35;101111.59;6147925;23;44782;-89
2021/07/07 05:46:19;;;;;;;;;4.00;3.00;;;;;17.93;56.10;101105.59;6251641;22;45378;-89
2021/07/07 05:48:45;;;;;;;;;6.00;5.00;;;;;17.99;56.54;101114.88;6147781;23;45957;-89
2021/07/07 05:51:10;;;;;;;;;6.00;4.00;;;;;18.00;56.33;101116.56;6148023;23;45378;-89
2021/07/07 05:53:36;;;;;;;;;5.33;3.00;;;;;18.00;56.17;101122.69;6147907;23;45469;-88
2021/07/07 05:56:01;;;;;;;;;4.67;4.33;;;;;17.97;55.98;101112.34;6148353;22;45151;-89
2021/07/07 05:58:26;;;;;;;;;4.00;4.00;;;;;17.98;56.32;101115.81;6147199;23;45779;-89
2021/07/07 06:00:52;;;;;;;;;5.00;5.00;;;;;17.97;56.43;101116.78;6147788;23;45242;-89
2021/07/07 06:03:17;;;;;;;;;6.00;5.00;;;;;18.01;56.85;101121.75;6147850;23;45290;-89
2021/07/07 06:05:43;;;;;;;;;4.67;3.67;;;;;17.97;56.39;101112.34;6148447;23;45191;-89
2021/07/07 06:08:08;;;;;;;;;4.00;4.00;;;;;17.96;56.69;101113.28;6148038;23;45330;-89
2021/07/07 06:10:33;;;;;;;;;3.33;3.00;;;;;18.01;56.75;101121.75;6147764;23;45212;-88
2021/07/07 06:12:59;;;;;;;;;8.00;5.33;;;;;18.05;56.52;101121.56;6147895;23;45239;-89
2021/07/07 06:15:25;;;;;;;;;4.00;4.00;;;;;18.05;56.23;101121.56;6147343;22;45182;-89
2021/07/07 06:17:53;;;;;;;;;13.33;5.67;;;;;18.01;56.70;101120.91;6147305;22;45808;-89
2021/07/07 06:20:18;;;;;;;;;4.33;4.33;;;;;17.95;56.75;101119.50;6250958;22;46104;-89
2021/07/07 06:22:45;;;;;;;;;3.33;3.33;;;;;17.92;56.72;101124.09;6147627;22;45406;-89
2021/07/07 06:25:12;;;;;;;;;4.33;4.00;;;;;17.96;57.13;101122.97;6251374;22;45362;-89
2021/07/07 06:27:39;;;;;;;;;6.00;4.67;;;;;17.96;57.18;101121.19;6147313;22;45330;-89
2021/07/07 06:30:07;;;;;;;;;8.00;5.33;;;;;18.03;57.15;101122.50;6146747;23;45244;-89
2021/07/07 06:32:33;;;;;;;;;6.00;5.00;;;;;18.02;57.03;101123.44;6251259;22;45385;-89
2021/07/07 06:35:01;;;;;;;;;3.00;3.00;;;;;18.01;57.46;101123.56;6147585;22;45307;-89
2021/07/07 06:37:28;;;;;;;;;6.33;4.00;;;;;18.06;57.19;101128.53;6147688;23;45490;-88
2021/07/07 06:39:53;;;;;;;;;5.00;5.00;;;;;18.08;57.24;101121.41;6147048;23;45251;-90
2021/07/07 06:42:18;;;;;;;;;6.00;4.67;;;;;18.09;57.79;101126.56;6147159;23;45356;-89
2021/07/07 06:44:44;;;;;;;;;10.00;6.33;;;;;18.11;57.80;101129.97;6147994;23;45180;-88
2021/07/07 06:47:11;;;;;;;;;5.00;5.00;;;;;18.17;57.59;101134.00;6250499;22;46896;-89
2021/07/07 06:49:37;;;;;;;;;5.00;5.00;;;;;18.21;57.27;101140.78;6146989;23;45656;-89
2021/07/07 06:52:03;;;;;;;;;4.67;4.67;;;;;18.26;56.63;101153.66;6250978;22;45389;-88
2021/07/07 06:54:28;;;;;;;;;9.00;6.00;;;;;18.18;57.10;101148.84;6250912;22;45591;-89
2021/07/07 06:56:54;;;;;;;;;5.00;5.00;;;;;18.17;57.07;101157.72;6146916;22;45878;-89
2021/07/07 06:59:19;;;;;;;;;7.00;6.00;;;;;18.10;57.11;101156.41;6146305;23;45270;-89
2021/07/07 07:01:45;;;;;;;;;5.67;5.67;;;;;18.11;57.47;101147.56;6249649;22;45612;-88
2021/07/07 07:04:10;;;;;;;;;7.00;6.00;;;;;18.16;57.20;101156.84;6147631;22;45271;-88
2021/07/07 07:06:35;;;;;;;;;5.00;5.00;;;;;18.18;57.03;101163.84;6147368;23;45583;-89
2021/07/07 07:09:03;;;;;;;;;8.33;5.00;;;;;18.19;57.00;101162.88;6250433;22;45239;-87
2021/07/07 07:11:28;;;;;;;;;6.00;4.00;;;;;18.20;56.86;101167.22;6146986;23;45263;-89
2021/07/07 07:13:53;;;;;;;;;5.00;5.00;;;;;18.19;56.64;101162.88;6147252;23;45405;-88
2021/07/07 07:16:20;;;;;;;;;4.00;4.00;;;;;18.22;56.76;101167.94;6146957;23;45553;-90
2021/07/07 07:18:45;;;;;;;;;6.00;4.33;;;;;18.23;57.20;101167.03;6146659;23;45208;-88
2021/07/07 07:21:14;;;;;;;;;5.00;5.00;;;;;18.25;57.39;101168.63;6146952;23;45510;-88
2021/07/07 07:23:39;;;;;;;;;8.33;5.00;;;;;18.34;57.46;101174.25;6147134;23;45322;-89
2021/07/07 07:26:05;;;;;;;;;5.50;5.50;;;;;18.40;57.19;101165.97;6147053;23;45861;-89
2021/07/07 07:28:30;;;;;;;;;6.33;4.33;;;;;18.46;57.22;101170.84;6147361;22;45221;-89
2021/07/07 07:30:57;;;;;;;;;8.50;6.75;;;;;18.51;56.82;101181.94;6146062;22;45450;-89
2021/07/07 07:33:25;;;;;;;;;5.67;5.00;;;;;18.54;56.36;101180.91;6146916;23;45438;-89
2021/07/07 07:35:50;;;;;;;;;4.33;4.33;;;;;18.58;56.95;101174.53;6146447;23;45444;-88
2021/07/07 07:38:25;;;;;;;;;5.00;5.00;;;;;18.68;57.00;101174.78;6146816;23;45229;-89
2021/07/07 07:40:51;;;;;;;;;8.33;6.33;;;;;18.75;56.84;101176.06;6147376;23;45393;-88
2021/07/07 07:43:19;;;;;;;;;8.00;6.00;;;;;18.85;56.36;101186.88;6147402;22;45344;-89
2021/07/07 07:45:45;;;;;;;;;6.33;5.00;;;;;18.88;55.87;101185.84;6146692;23;45581;-89
2021/07/07 07:48:10;;;;;;;;;9.00;6.67;;;;;18.90;56.35;101184.81;6147058;23;45373;-89
2021/07/07 07:50:36;;;;;;;;;6.00;5.67;;;;;18.95;55.94;101192.41;6146779;23;45323;-88
2021/07/07 07:53:01;;;;;;;;;8.33;7.33;;;;;18.94;55.90;101186.28;6147366;23;45236;-89
2021/07/07 07:55:26;;;;;;;;;6.00;5.33;;;;;18.99;55.86;101191.28;6147119;22;45256;-89
2021/07/07 07:57:52;;;;;;;;;7.33;5.67;;;;;19.07;55.59;101191.66;6146276;23;45293;-89
2021/07/07 08:00:21;;;;;;;;;5.67;4.00;;;;;19.12;55.56;101195.78;6147146;22;45180;-89
2021/07/07 08:02:46;;;;;;;;;6.00;4.33;;;;;19.23;55.78;101195.94;6147067;22;45303;-89
2021/07/07 08:05:13;;;;;;;;;4.00;4.00;;;;;19.20;55.63;101189.06;6250129;22;47860;-90
2021/07/07 08:07:39;;;;;;;;;6.33;5.00;;;;;19.25;55.09;101201.09;6147219;23;45259;-89
2021/07/07 08:10:06;;;;;;;;;6.00;4.67;;;;;19.26;55.54;101201.00;6149289;23;45718;-89
2021/07/07 08:12:32;;;;;;;;;5.00;4.00;;;;;19.30;55.11;101209.56;6149041;23;45299;-89
2021/07/07 08:14:57;;;;;;;;;7.67;4.67;;;;;19.34;55.27;101203.97;6147995;22;45392;-89
2021/07/07 08:17:23;;;;;;;;;7.00;6.67;;;;;19.43;54.81;101212.22;6147748;23;45485;-89
2021/07/07 08:19:49;;;;;;;;;5.33;4.67;;;;;19.50;54.95;101213.53;6149105;22;45213;-89
2021/07/07 08:22:16;;;;;;;;;10.00;5.00;;;;;19.58;55.08;101208.56;6251563;22;45339;-90
2021/07/07 08:24:42;;;;;;;;;5.33;5.00;;;;;19.70;53.92;101208.69;6252201;22;47256;-90
2021/07/07 08:27:08;;;;;;;;;6.67;5.00;;;;;19.75;54.23;101217.16;6148662;23;45354;-89
2021/07/07 08:29:35;;;;;;;;;7.00;5.67;;;;;19.79;53.88;101213.34;6148851;23;45371;-89
2021/07/07 08:32:01;;;;;;;;;4.67;4.67;;;;;19.88;53.96;101210.09;6148544;23;45304;-89
2021/07/07 08:34:26;;;;;;;;;6.00;6.00;;;;;19.95;53.85;101212.31;6148471;23;45274;-89
2021/07/07 08:36:52;;;;;;;;;4.00;4.00;;;;;19.97;53.60;101221.00;6148891;23;45240;-89
2021/07/07 08:39:17;;;;;;;;;4.67;4.67;;;;;20.02;53.80;101225.03;6148919;23;45313;-89
2021/07/07 08:41:42;;;;;;;;;6.33;5.00;;;;;20.08;53.56;101223.75;6148917;22;45503;-90
2021/07/07 08:44:08;;;;;;;;;6.00;5.67;;;;;20.13;53.77;101224.28;6148424;23;45333;-89
2021/07/07 08:46:34;;;;;;;;;4.67;4.67;;;;;20.22;53.23;101230.72;6148773;23;44652;-89
2021/07/07 08:49:00;;;;;;;;;5.00;4.33;;;;;20.25;52.68;101232.31;6146325;23;44678;-90
2021/07/07 08:51:25;;;;;;;;;5.00;4.67;;;;;20.26;52.62;101229.56;6148398;23;45380;-89
2021/07/07 08:53:51;;;;;;;;;6.33;5.00;;;;;20.26;52.71;101234.84;6139385;22;45448;-88
2021/07/07 08:56:17;;;;;;;;;5.33;5.33;;;;;20.30;52.61;101232.84;6121736;23;45306;-89
2021/07/07 08:58:42;;;;;;;;;6.67;5.00;;;;;20.32;53.02;101236.22;6149026;23;45243;-89
2021/07/07 09:01:08;;;;;;;;;6.00;6.00;;;;;20.33;52.49;101230.00;6122204;23;45227;-89
2021/07/07 09:03:33;;;;;;;;;10.33;8.00;;;;;20.32;52.58;101238.03;6148057;23;45323;-88
2021/07/07 09:06:05;;;;;;;;;9.00;6.33;;;;;20.32;52.81;101232.75;6121384;22;45443;-90
2021/07/07 09:08:45;;;;;;;;;6.33;5.00;;;;;20.35;52.39;101230.72;6122110;23;45330;-89
2021/07/07 09:11:21;;;;;;;;;7.67;5.67;;;;;20.45;52.85;101230.09;6149210;23;45346;-89
2021/07/07 09:14:06;;;;;;;;;6.00;6.00;;;;;20.53;52.84;101241.81;6147198;23;45503;-89
2021/07/07 09:16:44;;;;;;;;;7.00;6.00;;;;;20.62;52.10;101239.47;6147769;23;45223;-92
2021/07/07 09:19:20;;;;;;;;;7.67;5.67;;;;;20.66;52.31;101249.72;6148502;23;44672;-89
2021/07/07 09:21:52;;;;;;;;;6.67;5.00;;;;;20.70;52.28;101253.81;6121777;23;45402;-90
2021/07/07 09:24:21;;;;;;;;;7.00;6.33;;;;;20.72;52.21;101247.56;6148004;23;46390;-89
2021/07/07 09:27:01;;;;;;;;;7.00;5.00;;;;;20.85;52.11;101250.19;6148264;23;45255;-89
2021/07/07 09:29:37;;;;;;;;;8.00;5.00;;;;;20.93;52.08;101255.81;6122275;22;45419;-91
2021/07/07 09:32:17;;;;;;;;;6.67;4.67;;;;;21.05;51.82;101248.78;6147569;23;45307;-90
2021/07/07 09:34:48;;;;;;;;;6.00;6.00;;;;;21.11;50.65;101250.16;6148209;23;45172;-89
2021/07/07 09:37:23;;;;;;;;;6.67;6.00;;;;;21.09;50.71;101252.91;6121722;23;45382;-91
2021/07/07 09:39:49;;;;;;;;;6.00;5.00;;;;;21.09;50.37;101248.47;6148500;23;45182;-90
2021/07/07 09:42:31;;;;;;;;;5.67;5.67;;;;;21.14;51.15;101248.13;6149298;23;45303;-90
2021/07/07 09:44:59;;;;;;;;;7.67;6.67;;;;;21.28;51.04;101262.16;6121729;23;47239;-90
2021/07/07 09:47:26;;;;;;;;;8.00;6.33;;;;;21.33;49.94;101246.75;6147672;23;45143;-90
2021/07/07 09:49:51;;;;;;;;;7.00;6.33;;;;;21.41;49.93;101251.50;6121928;22;45275;-88
2021/07/07 09:52:19;;;;;;;;;5.67;4.00;;;;;21.53;50.32;101250.59;6121848;23;45212;-89
2021/07/07 09:54:45;;;;;;;;;6.00;6.00;;;;;21.63;50.61;101242.81;6147801;23;45613;-90
2021/07/07 09:57:11;;;;;;;;;7.25;7.25;;;;;21.72;49.90;101244.75;6147822;23;45454;-90
2021/07/07 09:59:36;;;;;;;;;8.00;8.00;;;;;21.83;50.63;101251.91;6149887;23;45278;-89
2021/07/07 10:02:04;;;;;;;;;8.00;7.00;;;;;21.98;49.80;101259.66;6119992;22;45247;-89
2021/07/07 10:04:32;;;;;;;;;7.00;6.00;;;;;21.99;49.32;101256.88;6121410;23;46206;-90
2021/07/07 10:06:59;;;;;;;;;5.00;5.00;;;;;21.94;49.37;101253.72;6147884;23;45389;-89
2021/07/07 10:09:25;;;;;;;;;6.67;6.67;;;;;21.94;49.78;101259.03;6148238;23;45250;-90
2021/07/07 10:11:53;;;;;;;;;6.33;5.67;;;;;21.91;48.89;101261.06;6147868;23;45564;-89
2021/07/07 10:14:21;;;;;;;;;6.00;5.00;;;;;21.88;48.95;101259.50;6147253;23;46128;-89
2021/07/07 10:16:46;;;;;;;;;6.33;5.67;;;;;21.86;48.66;101258.78;6120033;22;45406;-90
2021/07/07 10:19:14;;;;;;;;;7.00;6.75;;;;;21.88;48.83;101256.84;6120741;23;45264;-89
2021/07/07 10:21:39;;;;;;;;;5.25;5.25;;;;;21.94;49.11;101258.19;6148192;23;45397;-92
2021/07/07 10:24:05;;;;;;;;;11.67;6.33;;;;;21.96;49.13;101257.13;6119223;22;48073;-92
2021/07/07 10:26:31;;;;;;;;;7.00;6.67;;;;;22.03;49.10;101260.13;6145889;22;45306;-89
2021/07/07 10:28:57;;;;;;;;;6.00;6.00;;;;;22.10;49.00;101255.22;6145622;22;45408;-89
2021/07/07 10:31:44;;;;;;;;;6.00;6.00;;;;;22.12;48.35;101258.59;6144819;22;45326;-90
2021/07/07 10:34:10;;;;;;;;;7.00;7.00;;;;;22.08;49.18;101254.50;6144865;22;45425;-88
2021/07/07 10:36:39;;;;;;;;;5.67;5.67;;;;;22.05;49.02;101246.78;6145800;22;45157;-89
2021/07/07 10:39:07;;;;;;;;;8.33;5.00;;;;;22.12;48.60;101258.59;6146000;22;45377;-93
2021/07/07 10:41:42;;;;;;;;;5.67;4.33;;;;;22.18;48.48;101251.97;6145823;22;45259;-89
2021/07/07 10:44:22;;;;;;;;;5.00;4.33;;;;;22.28;47.16;101250.31;6144300;22;46009;-90
2021/07/07 10:46:49;;;;;;;;;6.00;4.00;;;;;22.34;46.99;101248.97;6145380;22;45235;-90
2021/07/07 10:49:24;;;;;;;;;8.67;6.33;;;;;22.31;46.04;101263.28;6119678;22;45421;-91
2021/07/07 10:51:52;;;;;;;;;6.00;5.33;;;;;22.21;46.92;101251.75;6120609;22;45497;-89
2021/07/07 10:54:25;;;;;;;;;6.33;5.00;;;;;22.18;47.24;101250.19;6118444;22;47158;-90
2021/07/07 10:56:52;;;;;;;;;7.00;7.00;;;;;22.21;47.12;101247.28;6119131;22;45268;-90
2021/07/07 10:59:32;;;;;;;;;5.33;4.00;;;;;22.29;47.47;101250.19;6119179;22;45243;-89
2021/07/07 11:02:09;;;;;;;;;4.67;4.67;;;;;22.40;47.19;101249.34;6145393;22;45310;-89
2021/07/07 11:04:43;;;;;;;;;5.67;5.00;;;;;22.60;48.25;101254.06;6145789;22;46402;-89
2021/07/07 11:07:28;;;;;;;;;5.00;5.00;;;;;22.83;47.12;101246.94;6119536;22;45821;-89
2021/07/07 11:09:59;;;;;;;;;5.67;5.67;;;;;23.00;46.88;101250.84;6145174;22;45318;-89
2021/07/07 11:12:48;;;;;;;;;7.67;5.67;;;;;23.12;46.76;101246.38;6145390;22;45651;-89
2021/07/07 11:15:19;;;;;;;;;3.25;3.00;;;;;23.33;46.11;101259.72;6143551;22;46238;-90
2021/07/07 11:17:49;;;;;;;;;5.00;5.00;;;;;23.47;46.25;101250.59;6145067;22;45274;-89
2021/07/07 11:20:18;;;;;;;;;4.00;4.00;;;;;23.66;46.00;101253.53;6145940;22;45710;-90
2021/07/07 11:22:46;;;;;;;;;6.00;4.67;;;;;23.78;45.66;101247.19;6120126;22;45386;-88